Time,TemperatureF,DewpointF,PressureIn,WindDirection,WindDirectionDegrees,WindSpeedMPH,WindSpeedGustMPH,Humidity,HourlyPrecipIn,Conditions,Clouds,dailyrainin,SoftwareType,DateUTC
2013-03-06 00:04:00,28.6,20.0,30.31,NW,322,7.0,21.0,69,0.00,,,0.04,weatherlink.com 1.10,2013-03-06 06:04:00,
2013-03-06 00:19:00,28.5,20.0,30.31,NW,309,14.0,18.0,70,0.00,,,0.04,weatherlink.com 1.10,2013-03-06 06:19:00,
2013-03-06 00:35:00,28.3,20.0,30.31,NNE,12,11.0,19.0,70,0.00,,,0.04,weatherlink.com 1.10,2013-03-06 06:35:00,
2013-03-06 00:50:00,28.1,19.0,30.31,NW,304,14.0,22.0,70,0.00,,,0.04,weatherlink.com 1.10,2013-03-06 06:50:00,
2013-03-06 01:05:00,27.9,20.0,30.32,NNW,333,4.0,15.0,72,0.00,,,0.04,weatherlink.com 1.10,2013-03-06 07:05:00,
2013-03-06 01:20:00,27.4,19.0,30.32,NW,325,9.0,22.0,72,0.00,,,0.04,weatherlink.com 1.10,2013-03-06 07:20:00,
2013-03-06 01:35:00,27.5,20.0,30.33,North,5,13.0,20.0,72,0.00,,,0.04,weatherlink.com 1.10,2013-03-06 07:35:00,
2013-03-06 01:50:00,27.2,19.0,30.33,NNW,340,13.0,20.0,72,0.00,,,0.04,weatherlink.com 1.10,2013-03-06 07:50:00,
2013-03-06 02:05:00,27.0,19.0,30.34,NW,308,18.0,20.0,72,0.00,,,0.04,weatherlink.com 1.10,2013-03-06 08:05:00,
2013-03-06 02:20:00,26.9,19.0,30.34,NW,312,9.0,19.0,73,0.00,,,0.04,weatherlink.com 1.10,2013-03-06 08:20:00,
2013-03-06 02:35:00,26.7,19.0,30.34,NNW,330,8.0,18.0,73,0.00,,,0.04,weatherlink.com 1.10,2013-03-06 08:35:00,
2013-03-06 02:50:00,26.9,20.0,30.34,NNW,335,8.0,15.0,74,0.00,,,0.04,weatherlink.com 1.10,2013-03-06 08:50:00,
2013-03-06 03:05:00,26.7,19.0,30.33,NNW,334,12.0,17.0,74,0.00,,,0.04,weatherlink.com 1.10,2013-03-06 09:05:00,
2013-03-06 03:20:00,26.6,19.0,30.34,NNW,346,9.0,18.0,73,0.00,,,0.00,weatherlink.com 1.10,2013-03-06 09:20:00,
2013-03-06 03:35:00,26.5,19.0,30.34,NNW,335,7.0,16.0,73,0.00,,,0.00,weatherlink.com 1.10,2013-03-06 09:35:00,
2013-03-06 03:50:00,26.6,19.0,30.35,NNW,337,6.0,18.0,73,0.00,,,0.00,weatherlink.com 1.10,2013-03-06 09:50:00,
2013-03-06 04:05:00,26.5,19.0,30.35,NNW,338,9.0,16.0,73,0.00,,,0.00,weatherlink.com 1.10,2013-03-06 10:05:00,
2013-03-06 04:20:00,26.1,18.0,30.36,NNW,329,11.0,18.0,72,0.00,,,0.00,weatherlink.com 1.10,2013-03-06 10:20:00,
2013-03-06 04:35:00,25.8,18.0,30.36,NW,305,9.0,19.0,73,0.00,,,0.00,weatherlink.com 1.10,2013-03-06 10:35:00,
2013-03-06 04:50:00,25.6,18.0,30.37,North,355,15.0,21.0,73,0.00,,,0.00,weatherlink.com 1.10,2013-03-06 10:50:00,
2013-03-06 05:05:00,25.3,18.0,30.38,NNW,340,9.0,19.0,74,0.00,,,0.00,weatherlink.com 1.10,2013-03-06 11:05:00,
2013-03-06 05:20:00,25.4,19.0,30.39,NNW,330,5.0,15.0,75,0.00,,,0.00,weatherlink.com 1.10,2013-03-06 11:20:00,
2013-03-06 05:35:00,25.4,19.0,30.39,North,355,9.0,18.0,75,0.00,,,0.00,weatherlink.com 1.10,2013-03-06 11:35:00,
2013-03-06 05:50:00,25.3,18.0,30.39,North,349,5.0,18.0,75,0.00,,,0.00,weatherlink.com 1.10,2013-03-06 11:50:00,
2013-03-06 06:05:00,25.4,19.0,30.40,NNW,340,6.0,14.0,75,0.00,,,0.00,weatherlink.com 1.10,2013-03-06 12:05:00,
2013-03-06 06:20:00,25.4,19.0,30.41,North,5,10.0,17.0,75,0.00,,,0.00,weatherlink.com 1.10,2013-03-06 12:20:00,
2013-03-06 06:35:00,25.4,18.0,30.42,NNW,340,6.0,21.0,74,0.00,,,0.00,weatherlink.com 1.10,2013-03-06 12:35:00,
2013-03-06 06:50:00,25.4,18.0,30.42,North,360,11.0,19.0,74,0.00,,,0.00,weatherlink.com 1.10,2013-03-06 12:50:00,
2013-03-06 07:05:00,25.5,18.0,30.42,NNW,344,9.0,13.0,74,0.00,,,0.00,weatherlink.com 1.10,2013-03-06 13:05:00,
2013-03-06 07:20:00,25.6,18.0,30.42,NNE,22,13.0,15.0,73,0.00,,,0.00,weatherlink.com 1.10,2013-03-06 13:20:00,
2013-03-06 07:35:00,25.7,18.0,30.43,NNW,344,6.0,16.0,73,0.00,,,0.00,weatherlink.com 1.10,2013-03-06 13:35:00,
2013-03-06 07:50:00,25.6,18.0,30.43,NNW,336,12.0,16.0,72,0.00,,,0.00,weatherlink.com 1.10,2013-03-06 13:50:00,
2013-03-06 08:05:00,25.8,18.0,30.43,North,355,6.0,14.0,73,0.00,,,0.00,weatherlink.com 1.10,2013-03-06 14:05:00,
2013-03-06 08:20:00,26.4,19.0,30.43,North,5,8.0,18.0,72,0.00,,,0.00,weatherlink.com 1.10,2013-03-06 14:20:00,
2013-03-06 08:35:00,26.3,18.0,30.44,NW,320,6.0,17.0,71,0.00,,,0.00,weatherlink.com 1.10,2013-03-06 14:35:00,
2013-03-06 08:51:00,26.9,18.0,30.45,North,355,5.0,16.0,70,0.00,,,0.00,weatherlink.com 1.10,2013-03-06 14:51:00,
2013-03-06 09:06:00,26.7,18.0,30.44,North,9,14.0,14.0,71,0.00,,,0.00,weatherlink.com 1.10,2013-03-06 15:06:00,
2013-03-06 09:21:00,27.2,19.0,30.44,NNW,344,6.0,13.0,71,0.00,,,0.00,weatherlink.com 1.10,2013-03-06 15:21:00,
2013-03-06 09:36:00,29.3,20.0,30.45,NNW,348,9.0,13.0,69,0.00,,,0.00,weatherlink.com 1.10,2013-03-06 15:36:00,
2013-03-06 09:51:00,29.2,19.0,30.45,NNE,19,8.0,12.0,67,0.00,,,0.00,weatherlink.com 1.10,2013-03-06 15:51:00,
2013-03-06 10:06:00,29.2,19.0,30.45,NW,325,6.0,11.0,67,0.00,,,0.00,weatherlink.com 1.10,2013-03-06 16:06:00,
2013-03-06 10:21:00,30.6,20.0,30.45,North,355,6.0,12.0,64,0.00,,,0.00,weatherlink.com 1.10,2013-03-06 16:21:00,
2013-03-06 10:36:00,31.1,20.0,30.45,North,360,4.0,12.0,64,0.00,,,0.00,weatherlink.com 1.10,2013-03-06 16:36:00,
2013-03-06 10:51:00,31.5,21.0,30.44,North,5,1.0,11.0,64,0.00,,,0.00,weatherlink.com 1.10,2013-03-06 16:51:00,
2013-03-06 11:06:00,32.4,21.0,30.43,NNE,15,7.0,11.0,63,0.00,,,0.00,weatherlink.com 1.10,2013-03-06 17:06:00,
2013-03-06 11:21:00,32.9,21.0,30.44,NE,45,6.0,12.0,62,0.00,,,0.00,weatherlink.com 1.10,2013-03-06 17:21:00,
2013-03-06 11:36:00,33.8,21.0,30.44,NNW,332,5.0,10.0,61,0.00,,,0.00,weatherlink.com 1.10,2013-03-06 17:36:00,
2013-03-06 11:51:00,34.6,21.0,30.44,NNE,24,4.0,8.0,59,0.00,,,0.00,weatherlink.com 1.10,2013-03-06 17:51:00,
2013-03-06 12:06:00,35.1,22.0,30.44,NW,317,6.0,9.0,60,0.00,,,0.00,weatherlink.com 1.10,2013-03-06 18:06:00,
2013-03-06 12:21:00,35.9,21.0,30.43,NNW,345,2.0,9.0,55,0.00,,,0.00,weatherlink.com 1.10,2013-03-06 18:21:00,
2013-03-06 12:36:00,37.7,24.0,30.43,WNW,301,2.0,11.0,58,0.00,,,0.00,weatherlink.com 1.10,2013-03-06 18:36:00,
2013-03-06 12:51:00,37.6,23.0,30.42,NE,34,2.0,6.0,55,0.00,,,0.00,weatherlink.com 1.10,2013-03-06 18:51:00,
2013-03-06 13:06:00,38.1,24.0,30.42,NNW,331,2.0,9.0,57,0.00,,,0.00,weatherlink.com 1.10,2013-03-06 19:06:00,
2013-03-06 13:21:00,38.1,23.0,30.41,North,355,2.0,8.0,54,0.00,,,0.00,weatherlink.com 1.10,2013-03-06 19:21:00,
2013-03-06 13:36:00,39.8,25.0,30.40,NW,307,10.0,11.0,56,0.00,,,0.00,weatherlink.com 1.10,2013-03-06 19:36:00,
2013-03-06 13:51:00,40.2,25.0,30.40,NW,315,6.0,10.0,54,0.00,,,0.00,weatherlink.com 1.10,2013-03-06 19:51:00,
2013-03-06 14:06:00,40.8,24.0,30.39,NW,309,6.0,10.0,52,0.00,,,0.00,weatherlink.com 1.10,2013-03-06 20:06:00,
2013-03-06 14:21:00,41.1,24.0,30.39,NW,315,9.0,11.0,52,0.00,,,0.00,weatherlink.com 1.10,2013-03-06 20:21:00,
2013-03-06 14:36:00,41.3,24.0,30.39,NW,318,4.0,11.0,50,0.00,,,0.00,weatherlink.com 1.10,2013-03-06 20:36:00,
2013-03-06 14:51:00,41.3,24.0,30.39,North,350,5.0,10.0,50,0.00,,,0.00,weatherlink.com 1.10,2013-03-06 20:51:00,
2013-03-06 15:06:00,42.4,26.0,30.39,West,281,4.0,12.0,52,0.00,,,0.00,weatherlink.com 1.10,2013-03-06 21:06:00,
2013-03-06 15:21:00,42.2,26.0,30.38,WSW,255,4.0,12.0,52,0.00,,,0.00,weatherlink.com 1.10,2013-03-06 21:21:00,
2013-03-06 15:36:00,42.0,25.0,30.37,NNW,335,5.0,9.0,52,0.00,,,0.00,weatherlink.com 1.10,2013-03-06 21:36:00,
2013-03-06 15:51:00,42.8,26.0,30.37,WNW,295,7.0,9.0,51,0.00,,,0.00,weatherlink.com 1.10,2013-03-06 21:51:00,
2013-03-06 16:06:00,41.4,24.0,30.37,North,11,3.0,9.0,50,0.00,,,0.00,weatherlink.com 1.10,2013-03-06 22:06:00,
2013-03-06 16:21:00,42.3,25.0,30.37,NW,305,6.0,7.0,51,0.00,,,0.00,weatherlink.com 1.10,2013-03-06 22:21:00,
2013-03-06 16:36:00,42.4,26.0,30.37,WNW,299,5.0,10.0,52,0.00,,,0.00,weatherlink.com 1.10,2013-03-06 22:36:00,
2013-03-06 16:51:00,41.8,25.0,30.36,WNW,302,6.0,8.0,51,0.00,,,0.00,weatherlink.com 1.10,2013-03-06 22:51:00,
2013-03-06 17:06:00,41.0,23.0,30.37,NNE,13,3.0,7.0,50,0.00,,,0.00,weatherlink.com 1.10,2013-03-06 23:06:00,
2013-03-06 17:21:00,40.0,23.0,30.37,NNW,345,3.0,6.0,52,0.00,,,0.00,weatherlink.com 1.10,2013-03-06 23:21:00,
2013-03-06 17:36:00,39.4,23.0,30.36,NNW,342,3.0,4.0,53,0.00,,,0.00,weatherlink.com 1.10,2013-03-06 23:36:00,
2013-03-06 17:51:00,39.1,24.0,30.35,NNW,343,4.0,4.0,54,0.00,,,0.00,weatherlink.com 1.10,2013-03-06 23:51:00,
2013-03-06 18:06:00,38.6,24.0,30.36,NNW,344,1.0,4.0,55,0.00,,,0.00,weatherlink.com 1.10,2013-03-07 00:06:00,
2013-03-06 18:21:00,38.2,23.0,30.35,NNW,344,2.0,3.0,55,0.00,,,0.00,weatherlink.com 1.10,2013-03-07 00:21:00,
2013-03-06 18:36:00,37.6,23.0,30.35,NNW,344,2.0,4.0,56,0.00,,,0.00,weatherlink.com 1.10,2013-03-07 00:36:00,
2013-03-06 18:51:00,37.3,24.0,30.35,NNW,344,1.0,3.0,58,0.00,,,0.00,weatherlink.com 1.10,2013-03-07 00:51:00,
2013-03-06 19:06:00,36.8,24.0,30.36,NNW,344,2.0,3.0,60,0.00,,,0.00,weatherlink.com 1.10,2013-03-07 01:06:00,
2013-03-06 19:21:00,35.9,24.0,30.35,NNW,344,2.0,3.0,62,0.00,,,0.00,weatherlink.com 1.10,2013-03-07 01:21:00,
2013-03-06 19:36:00,36.3,23.0,30.36,NNW,344,2.0,4.0,59,0.00,,,0.00,weatherlink.com 1.10,2013-03-07 01:36:00,
2013-03-06 19:51:00,35.7,23.0,30.35,NNW,344,0.0,3.0,60,0.00,,,0.00,weatherlink.com 1.10,2013-03-07 01:51:00,
2013-03-06 20:06:00,35.4,23.0,30.35,NNW,344,1.0,4.0,61,0.00,,,0.00,weatherlink.com 1.10,2013-03-07 02:06:00,
2013-03-06 20:21:00,33.1,23.0,30.34,ENE,78,5.0,7.0,66,0.00,,,0.00,weatherlink.com 1.10,2013-03-07 02:21:00,
2013-03-06 20:36:00,33.3,23.0,30.36,ENE,66,3.0,7.0,65,0.00,,,0.00,weatherlink.com 1.10,2013-03-07 02:36:00,
2013-03-06 20:51:00,33.3,23.0,30.36,ENE,59,4.0,6.0,65,0.00,,,0.00,weatherlink.com 1.10,2013-03-07 02:51:00,
2013-03-06 21:06:00,32.6,22.0,30.35,ENE,77,5.0,9.0,66,0.00,,,0.00,weatherlink.com 1.10,2013-03-07 03:06:00,
2013-03-06 21:22:00,32.0,22.0,30.36,East,86,5.0,7.0,67,0.00,,,0.00,weatherlink.com 1.10,2013-03-07 03:22:00,
2013-03-06 21:36:00,31.7,23.0,30.36,ENE,74,5.0,8.0,69,0.00,,,0.00,weatherlink.com 1.10,2013-03-07 03:36:00,
2013-03-06 21:51:00,31.1,22.0,30.35,East,80,5.0,7.0,70,0.00,,,0.00,weatherlink.com 1.10,2013-03-07 03:51:00,
2013-03-06 22:06:00,30.6,22.0,30.34,East,84,7.0,8.0,71,0.00,,,0.00,weatherlink.com 1.10,2013-03-07 04:06:00,
2013-03-06 22:21:00,30.6,22.0,30.34,ENE,78,5.0,9.0,71,0.00,,,0.00,weatherlink.com 1.10,2013-03-07 04:21:00,
2013-03-06 22:37:00,30.1,22.0,30.35,ENE,77,4.0,5.0,72,0.00,,,0.00,weatherlink.com 1.10,2013-03-07 04:37:00,
2013-03-06 22:52:00,29.6,22.0,30.34,East,81,6.0,7.0,74,0.00,,,0.00,weatherlink.com 1.10,2013-03-07 04:52:00,
2013-03-06 23:07:00,29.0,22.0,30.34,East,82,6.0,8.0,75,0.00,,,0.00,weatherlink.com 1.10,2013-03-07 05:07:00,
2013-03-06 23:22:00,28.9,22.0,30.33,East,86,6.0,9.0,75,0.00,,,0.00,weatherlink.com 1.10,2013-03-07 05:22:00,
2013-03-06 23:37:00,28.8,22.0,30.34,ESE,105,8.0,9.0,76,0.00,,,0.00,weatherlink.com 1.10,2013-03-07 05:37:00,
2013-03-06 23:52:00,28.8,22.0,30.34,East,88,5.0,8.0,76,0.00,,,0.00,weatherlink.com 1.10,2013-03-07 05:52:00,